createdAt,value
2022-12-11T00:00:39.587Z,97834.25
2022-12-11T00:03:10.204Z,97815.78
2022-12-11T00:05:40.365Z,97813.41
2022-12-11T00:08:07.395Z,97818.75
2022-12-11T00:10:37.635Z,97805.94
2022-12-11T00:13:05.200Z,97806.72
2022-12-11T00:15:32.057Z,97802.44
2022-12-11T00:17:58.950Z,97776.66
2022-12-11T00:20:25.881Z,97803.81
2022-12-11T00:22:52.728Z,97808.88
2022-12-11T00:25:19.542Z,97811.84
2022-12-11T00:27:47.188Z,97807.56
2022-12-11T00:30:14.518Z,97804.34
2022-12-11T00:32:41.431Z,97797.97
2022-12-11T00:35:09.231Z,97806.22
2022-12-11T00:37:36.296Z,97812.38
2022-12-11T00:40:03.406Z,97818.53
2022-12-11T00:42:30.339Z,97803.84
2022-12-11T00:44:57.241Z,97807.28
2022-12-11T00:47:24.075Z,97824.66
2022-12-11T00:49:50.939Z,97819.81
2022-12-11T00:52:18.225Z,97820.63
2022-12-11T00:54:45.344Z,97817.16
2022-12-11T00:57:12.243Z,97821.44
2022-12-11T00:59:39.244Z,97792.94
2022-12-11T01:02:06.145Z,97814.22
2022-12-11T01:04:35.809Z,97804.31
2022-12-11T01:07:02.639Z,97799.78
2022-12-11T01:09:48.255Z,97789.06
2022-12-11T01:12:15.131Z,97793.34
2022-12-11T01:14:41.958Z,97789.88
2022-12-11T01:17:08.988Z,97803.28
2022-12-11T01:19:35.836Z,97770.75
2022-12-11T01:22:02.697Z,97782.16
2022-12-11T01:24:29.583Z,97797.38
2022-12-11T01:26:56.491Z,97761.72
2022-12-11T01:29:23.360Z,97800.38
2022-12-11T01:31:50.254Z,97796.88
2022-12-11T01:34:17.081Z,97795.81
2022-12-11T01:36:44.041Z,97803.56
2022-12-11T01:39:10.933Z,97807.84
2022-12-11T01:41:37.756Z,97800.09
2022-12-11T01:44:08.577Z,97794.47
2022-12-11T01:46:36.616Z,97779.56
2022-12-11T01:49:06.379Z,97794.75
2022-12-11T01:51:33.690Z,97787.78
2022-12-11T01:54:07.724Z,97793.16
2022-12-11T01:56:34.857Z,97781.94
2022-12-11T01:59:07.420Z,97789.41
2022-12-11T02:01:44.893Z,97771.84
2022-12-11T02:04:14.514Z,97786.50
2022-12-11T02:06:48.742Z,97791.03
2022-12-11T02:09:17.718Z,97789.47
2022-12-11T02:12:18.622Z,97790.50
2022-12-11T02:15:05.655Z,97775.06
2022-12-11T02:17:52.950Z,97785.72
2022-12-11T02:20:26.031Z,97782.53
2022-12-11T02:22:52.834Z,97793.47
2022-12-11T02:25:22.687Z,97779.03
2022-12-11T02:28:14.321Z,97779.81
2022-12-11T02:30:41.170Z,97773.69
2022-12-11T02:33:08.040Z,97777.44
2022-12-11T02:35:37.704Z,97758.75
2022-12-11T02:38:08.017Z,97761.94
2022-12-11T02:40:35.594Z,97772.63
2022-12-11T02:43:04.708Z,97772.63
2022-12-11T02:45:31.673Z,97759.03
2022-12-11T02:47:58.973Z,97763.00
2022-12-11T02:50:25.837Z,97756.34
2022-12-11T02:52:53.927Z,97761.41
2022-12-11T02:55:20.798Z,97765.97
2022-12-11T02:58:06.582Z,97775.56
2022-12-11T03:00:33.443Z,97770.22
2022-12-11T03:03:00.302Z,97767.28
2022-12-11T03:05:28.067Z,97756.84
2022-12-11T03:07:55.080Z,97768.31
2022-12-11T03:10:22.169Z,97769.91
2022-12-11T03:12:53.602Z,97749.16
2022-12-11T03:15:22.259Z,97761.38
2022-12-11T03:18:09.938Z,97769.13
2022-12-11T03:20:39.760Z,97762.19
2022-12-11T03:23:19.569Z,97756.03
2022-12-11T03:25:52.406Z,97761.66
2022-12-11T03:28:42.348Z,97760.06
2022-12-11T03:31:11.289Z,97756.91
2022-12-11T03:33:40.568Z,97763.28
2022-12-11T03:36:12.827Z,97760.31
2022-12-11T03:38:46.650Z,97758.50
2022-12-11T03:41:13.551Z,97754.75
2022-12-11T03:43:40.437Z,97751.81
2022-12-11T03:46:07.807Z,97735.53
2022-12-11T03:48:36.424Z,97743.81
2022-12-11T03:51:05.567Z,97749.41
2022-12-11T03:53:34.530Z,97746.75
2022-12-11T03:56:01.415Z,97748.88
2022-12-11T03:58:28.243Z,97748.34
2022-12-11T04:00:55.079Z,97737.41
2022-12-11T04:03:21.971Z,97751.28
2022-12-11T04:05:50.166Z,97678.53
2022-12-11T04:08:17.725Z,97726.47
2022-12-11T04:10:44.665Z,97730.19
2022-12-11T04:13:11.667Z,97734.22
2022-12-11T04:15:38.615Z,97727.00
2022-12-11T04:18:24.607Z,97697.44
2022-12-11T04:21:13.211Z,97694.25
2022-12-11T04:23:58.694Z,97728.34
2022-12-11T04:26:25.604Z,97695.88
2022-12-11T04:28:52.448Z,97728.38
2022-12-11T04:31:21.196Z,97720.63
2022-12-11T04:33:48.183Z,97719.84
2022-12-11T04:36:15.143Z,97721.72
2022-12-11T04:38:42.165Z,97717.69
2022-12-11T04:41:13.674Z,97723.03
2022-12-11T04:43:40.510Z,97721.44
2022-12-11T04:46:09.713Z,97721.44
2022-12-11T04:48:36.998Z,97690.25
2022-12-11T04:51:05.494Z,97716.63
2022-12-11T04:53:32.532Z,97721.44
2022-12-11T04:55:59.417Z,97720.63
2022-12-11T04:58:26.336Z,97723.56
2022-12-11T05:00:53.445Z,97727.06
2022-12-11T05:03:20.581Z,97730.00
2022-12-11T05:05:48.980Z,97726.78
2022-12-11T05:08:15.908Z,97721.44
2022-12-11T05:10:49.868Z,97723.63
2022-12-11T05:13:17.058Z,97728.44
2022-12-11T05:15:43.951Z,97724.44
2022-12-11T05:18:10.844Z,97720.72
2022-12-11T05:20:37.777Z,97729.25
2022-12-11T05:23:04.614Z,97727.41
2022-12-11T05:25:31.450Z,97691.41
2022-12-11T05:27:58.348Z,97743.38
2022-12-11T05:30:25.172Z,97740.16
2022-12-11T05:32:52.082Z,97738.56
2022-12-11T05:35:18.974Z,97747.38
2022-12-11T05:37:45.845Z,97721.53
2022-12-11T05:40:12.860Z,97732.44
2022-12-11T05:42:39.758Z,97747.69
2022-12-11T05:45:06.957Z,97745.25
2022-12-11T05:47:33.811Z,97749.56
2022-12-11T05:50:00.684Z,97749.56
2022-12-11T05:52:27.575Z,97747.13
2022-12-11T05:54:54.422Z,97750.59
2022-12-11T05:57:21.285Z,97762.38
2022-12-11T05:59:48.117Z,97763.47
2022-12-11T06:02:15.125Z,97722.94
2022-12-11T06:04:42.304Z,97751.72
2022-12-11T06:07:09.159Z,97749.59
2022-12-11T06:09:36.025Z,97739.47
2022-12-11T06:12:02.935Z,97749.34
2022-12-11T06:14:29.814Z,97760.28
2022-12-11T06:16:56.661Z,97763.50
2022-12-11T06:19:23.969Z,97756.56
2022-12-11T06:21:50.791Z,97758.88
2022-12-11T06:24:17.619Z,97763.47
2022-12-11T06:26:44.485Z,97755.94
2022-12-11T06:29:13.100Z,97760.25
2022-12-11T06:31:40.425Z,97765.63
2022-12-11T06:34:07.411Z,97744.31
2022-12-11T06:36:34.457Z,97766.72
2022-12-11T06:39:01.287Z,97774.44
2022-12-11T06:41:28.290Z,97767.44
2022-12-11T06:43:55.113Z,97778.44
2022-12-11T06:46:22.035Z,97786.22
2022-12-11T06:48:48.946Z,97752.34
2022-12-11T06:51:18.231Z,97759.03
2022-12-11T06:53:45.327Z,97732.34
2022-12-11T06:56:13.838Z,97756.84
2022-12-11T06:58:40.895Z,97745.41
2022-12-11T07:01:18.547Z,97753.66
2022-12-11T07:03:46.574Z,97784.84
2022-12-11T07:06:13.930Z,97788.81
2022-12-11T07:08:40.845Z,97789.69
2022-12-11T07:11:10.401Z,97798.22
2022-12-11T07:13:37.384Z,97802.50
2022-12-11T07:16:05.801Z,97800.38
2022-12-11T07:18:32.911Z,97799.59
2022-12-11T07:21:02.770Z,97814.03
2022-12-11T07:23:29.688Z,97768.69
2022-12-11T07:25:56.789Z,97784.16
2022-12-11T07:28:24.009Z,97802.78
2022-12-11T07:30:50.992Z,97805.22
2022-12-11T07:33:17.876Z,97804.13
2022-12-11T07:35:44.745Z,97790.28
2022-12-11T07:38:11.757Z,97813.19
2022-12-11T07:40:38.623Z,97810.25
2022-12-11T07:43:05.546Z,97814.03
2022-12-11T07:45:32.453Z,97817.44
2022-12-11T07:47:59.425Z,97812.09
2022-12-11T07:50:26.236Z,97820.66
2022-12-11T07:52:53.120Z,97824.13
2022-12-11T07:55:19.954Z,97830.00
2022-12-11T07:57:46.795Z,97833.75
2022-12-11T08:00:14.027Z,97802.56
2022-12-11T08:02:41.421Z,97829.78
2022-12-11T08:05:09.058Z,97826.00
2022-12-11T08:07:36.224Z,97828.69
2022-12-11T08:10:04.162Z,97822.53
2022-12-11T08:12:31.022Z,97828.69
2022-12-11T08:14:57.930Z,97832.19
2022-12-11T08:17:29.622Z,97824.97
2022-12-11T08:19:57.821Z,97820.16
2022-12-11T08:22:24.658Z,97833.28
2022-12-11T08:24:51.502Z,97823.94
2022-12-11T08:27:18.448Z,97832.75
2022-12-11T08:29:47.531Z,97833.53
2022-12-11T08:32:16.786Z,97833.81
2022-12-11T08:34:43.794Z,97832.47
2022-12-11T08:37:10.625Z,97841.00
2022-12-11T08:39:37.663Z,97838.88
2022-12-11T08:42:05.319Z,97840.50
2022-12-11T08:44:32.265Z,97845.84
2022-12-11T08:46:59.122Z,97848.53
2022-12-11T08:49:29.836Z,97856.25
2022-12-11T08:51:59.636Z,97848.47
2022-12-11T08:54:26.801Z,97849.03
2022-12-11T08:56:58.028Z,97844.75
2022-12-11T08:59:25.817Z,97852.22
2022-12-11T09:01:52.763Z,97847.97
2022-12-11T09:04:19.724Z,97856.53
2022-12-11T09:06:46.563Z,97853.31
2022-12-11T09:09:13.475Z,97858.66
2022-12-11T09:11:40.611Z,97838.13
2022-12-11T09:14:08.273Z,97859.16
2022-12-11T09:16:37.901Z,97828.22
2022-12-11T09:19:04.768Z,97853.56
2022-12-11T09:21:31.661Z,97846.63
2022-12-11T09:24:00.118Z,97856.78
2022-12-11T09:26:27.643Z,97850.91
2022-12-11T09:28:54.975Z,97861.06
2022-12-11T09:31:26.917Z,97849.31
2022-12-11T09:33:58.306Z,97829.28
2022-12-11T09:36:25.292Z,97834.63
2022-12-11T09:38:52.389Z,97845.84
2022-12-11T09:41:22.006Z,97856.25
2022-12-11T09:43:59.619Z,97847.69
2022-12-11T09:46:30.584Z,97839.97
2022-12-11T09:49:00.552Z,97847.69
2022-12-11T09:51:50.187Z,97842.88
2022-12-11T09:54:17.067Z,97832.50
2022-12-11T09:57:28.423Z,97838.09
2022-12-11T10:00:15.693Z,97840.50
2022-12-11T10:03:07.397Z,97842.34
2022-12-11T10:05:51.258Z,97844.78
2022-12-11T10:08:24.028Z,97837.53
2022-12-11T10:11:06.317Z,97851.44
2022-12-11T10:13:51.383Z,97843.16
2022-12-11T10:16:28.469Z,97849.31
2022-12-11T10:18:55.395Z,97846.34
2022-12-11T10:21:22.242Z,97826.59
2022-12-11T10:24:01.904Z,97838.34
2022-12-11T10:26:29.263Z,97841.28
2022-12-11T10:28:59.835Z,97845.25
2022-12-11T10:31:47.736Z,97837.78
2022-12-11T10:34:34.298Z,97843.13
2022-12-11T10:37:01.308Z,97829.53
2022-12-11T10:39:28.246Z,97798.06
2022-12-11T10:41:55.475Z,97828.47
2022-12-11T10:44:28.427Z,97832.47
2022-12-11T10:47:06.493Z,97835.16
2022-12-11T10:49:34.698Z,97808.22
2022-12-11T10:52:01.678Z,97814.88
2022-12-11T10:54:38.127Z,97819.13
2022-12-11T10:57:06.052Z,97818.28
2022-12-11T10:59:38.793Z,97809.50
2022-12-11T11:02:06.394Z,97804.16
2022-12-11T11:04:37.564Z,97800.13
2022-12-11T11:07:20.071Z,97810.28
2022-12-11T11:09:47.130Z,97809.78
2022-12-11T11:12:22.703Z,97805.75
2022-12-11T11:14:59.567Z,97794.03
2022-12-11T11:17:29.567Z,97811.09
2022-12-11T11:20:01.442Z,97806.03
2022-12-11T11:22:28.418Z,97797.47
2022-12-11T11:24:56.531Z,97810.81
2022-12-11T11:27:45.642Z,97800.13
2022-12-11T11:30:23.846Z,97805.22
2022-12-11T11:32:54.798Z,97806.31
2022-12-11T11:35:24.471Z,97808.97
2022-12-11T11:38:40.634Z,97809.50
2022-12-11T11:41:15.047Z,97809.53
2022-12-11T11:43:50.742Z,97804.19
2022-12-11T11:46:24.354Z,97773.78
2022-12-11T11:48:54.274Z,97795.63
2022-12-11T11:51:56.572Z,97792.44
2022-12-11T11:54:42.266Z,97793.22
2022-12-11T11:57:15.548Z,97777.50
2022-12-11T11:59:54.688Z,97796.44
2022-12-11T12:02:21.573Z,97789.50
2022-12-11T12:04:51.291Z,97785.25
2022-12-11T12:07:53.571Z,97790.06
2022-12-11T12:10:36.139Z,97788.47
2022-12-11T12:13:23.895Z,97797.53
2022-12-11T12:15:58.724Z,97795.41
2022-12-11T12:18:57.252Z,97796.72
2022-12-11T12:21:36.708Z,97787.66
2022-12-11T12:24:42.565Z,97802.91
2022-12-11T12:27:50.518Z,97811.16
2022-12-11T12:30:13.277Z,97812.75
2022-12-11T12:32:56.935Z,97809.28
2022-12-11T12:35:34.511Z,97811.44
2022-12-11T12:38:19.965Z,97815.97
2022-12-11T12:41:14.224Z,97812.75
2022-12-11T12:44:24.163Z,97802.91
2022-12-11T12:47:09.823Z,97798.34
2022-12-11T12:49:44.882Z,97799.41
2022-12-11T12:52:51.344Z,97807.94
2022-12-11T12:55:24.272Z,97807.66
2022-12-11T12:58:05.405Z,97813.25
2022-12-11T13:00:42.344Z,97821.00
2022-12-11T13:03:23.346Z,97799.16
2022-12-11T13:05:59.169Z,97826.63
2022-12-11T13:08:27.704Z,97825.03
2022-12-11T13:11:06.418Z,97832.25
2022-12-11T13:13:38.644Z,97844.53
2022-12-11T13:16:15.164Z,97842.66
2022-12-11T13:18:43.855Z,97838.38
2022-12-11T13:21:32.181Z,97813.06
2022-12-11T13:24:20.571Z,97842.13
2022-12-11T13:26:48.363Z,97833.34
2022-12-11T13:29:47.635Z,97840.56
2022-12-11T13:32:14.444Z,97839.22
2022-12-11T13:34:42.925Z,97834.41
2022-12-11T13:37:45.346Z,97847.22
2022-12-11T13:40:25.993Z,97846.69
2022-12-11T13:43:00.273Z,97810.41
2022-12-11T13:45:29.641Z,97830.69
2022-12-11T13:47:57.040Z,97859.25
2022-12-11T13:50:29.825Z,97858.75
2022-12-11T13:52:58.096Z,97828.31
2022-12-11T13:55:30.249Z,97855.00
2022-12-11T13:57:57.301Z,97847.22
2022-12-11T14:00:25.682Z,97849.09
2022-12-11T14:02:53.724Z,97854.44
2022-12-11T14:05:21.132Z,97863.50
2022-12-11T14:07:49.932Z,97858.72
2022-12-11T14:10:19.931Z,97867.28
2022-12-11T14:13:04.022Z,97866.75
2022-12-11T14:15:31.832Z,97808.56
2022-12-11T14:17:58.746Z,97868.06
2022-12-11T14:20:26.306Z,97844.84
2022-12-11T14:22:53.266Z,97872.84
2022-12-11T14:25:25.444Z,97875.53
2022-12-11T14:27:53.866Z,97882.50
2022-12-11T14:30:25.190Z,97871.00
2022-12-11T14:32:52.896Z,97871.56
2022-12-11T14:35:40.370Z,97866.47
2022-12-11T14:38:29.170Z,97863.28
2022-12-11T14:40:58.423Z,97813.66
2022-12-11T14:43:48.723Z,97867.56
2022-12-11T14:46:38.599Z,97876.63
2022-12-11T14:49:40.909Z,97875.28
2022-12-11T14:52:21.545Z,97875.03
2022-12-11T14:54:51.427Z,97878.22
2022-12-11T14:57:23.115Z,97876.63
2022-12-11T14:59:50.582Z,97882.50
2022-12-11T15:02:29.790Z,97839.47
2022-12-11T15:05:11.676Z,97882.97
2022-12-11T15:07:38.701Z,97868.56
2022-12-11T15:10:05.740Z,97875.22
2022-12-11T15:12:32.637Z,97877.09
2022-12-11T15:15:05.349Z,97853.88
2022-12-11T15:17:34.621Z,97872.56
2022-12-11T15:20:20.128Z,97844.06
2022-12-11T15:22:46.888Z,97884.63
2022-12-11T15:25:22.296Z,97889.69
2022-12-11T15:27:53.563Z,97884.88
2022-12-11T15:30:26.528Z,97883.53
2022-12-11T15:33:19.089Z,97885.44
2022-12-11T15:35:59.417Z,97881.66
2022-12-11T15:38:33.373Z,97857.13
2022-12-11T15:41:00.488Z,97882.22
2022-12-11T15:43:27.989Z,97888.34
2022-12-11T15:45:54.863Z,97887.25
2022-12-11T15:48:21.799Z,97896.38
2022-12-11T15:50:48.685Z,97900.13
2022-12-11T15:53:15.603Z,97895.81
2022-12-11T15:55:42.624Z,97886.19
2022-12-11T15:58:14.239Z,97897.47
2022-12-11T16:00:41.068Z,97902.25
2022-12-11T16:03:11.129Z,97904.94
2022-12-11T16:05:38.005Z,97910.25
2022-12-11T16:08:05.342Z,97869.16
2022-12-11T16:10:32.356Z,97898.53
2022-12-11T16:12:59.822Z,97904.66
2022-12-11T16:15:26.976Z,97891.03
2022-12-11T16:18:05.151Z,97920.44
2022-12-11T16:20:32.184Z,97923.09
2022-12-11T16:22:59.346Z,97926.84
2022-12-11T16:25:26.451Z,97920.16
2022-12-11T16:27:57.249Z,97919.88
2022-12-11T16:30:24.317Z,97924.69
2022-12-11T16:32:51.502Z,97922.84
2022-12-11T16:35:18.961Z,97922.28
2022-12-11T16:37:46.056Z,97901.72
2022-12-11T16:40:12.941Z,97931.63
2022-12-11T16:42:39.766Z,97925.22
2022-12-11T16:45:12.178Z,97933.50
2022-12-11T16:47:39.268Z,97935.63
2022-12-11T16:50:06.589Z,97931.09
2022-12-11T16:52:33.897Z,97932.97
2022-12-11T16:55:00.890Z,97924.66
2022-12-11T16:57:28.171Z,97918.53
2022-12-11T16:59:55.106Z,97919.88
2022-12-11T17:02:22.026Z,97911.06
2022-12-11T17:04:53.697Z,97906.00
2022-12-11T17:07:20.978Z,97906.97
2022-12-11T17:09:47.946Z,97900.38
2022-12-11T17:12:14.866Z,97911.06
2022-12-11T17:14:41.771Z,97913.22
2022-12-11T17:17:09.562Z,97916.97
2022-12-11T17:19:36.579Z,97904.41
2022-12-11T17:22:04.587Z,97910.28
2022-12-11T17:24:31.555Z,97920.16
2022-12-11T17:26:59.708Z,97911.88
2022-12-11T17:29:26.605Z,97908.41
2022-12-11T17:31:53.526Z,97899.06
2022-12-11T17:34:20.393Z,97895.31
2022-12-11T17:36:47.324Z,97897.19
2022-12-11T17:39:14.223Z,97894.53
2022-12-11T17:41:41.045Z,97895.56
2022-12-11T17:44:07.894Z,97838.47
2022-12-11T17:46:34.860Z,97899.06
2022-12-11T17:49:04.871Z,97892.13
2022-12-11T17:51:31.730Z,97892.94
2022-12-11T17:53:58.718Z,97897.72
2022-12-11T17:56:25.911Z,97900.13
2022-12-11T17:58:52.820Z,97897.72
2022-12-11T18:01:19.973Z,97898.78
2022-12-11T18:03:47.106Z,97910.00
2022-12-11T18:06:14.908Z,97914.28
2022-12-11T18:08:41.984Z,97911.59
2022-12-11T18:11:10.700Z,97913.72
2022-12-11T18:13:37.566Z,97913.22
2022-12-11T18:16:19.113Z,97916.94
2022-12-11T18:18:46.795Z,97908.66
2022-12-11T18:21:14.942Z,97908.41
2022-12-11T18:23:42.004Z,97910.28
2022-12-11T18:26:11.014Z,97906.53
2022-12-11T18:28:37.976Z,97910.28
2022-12-11T18:31:05.220Z,97912.41
2022-12-11T18:33:32.306Z,97906.81
2022-12-11T18:35:59.276Z,97908.66
2022-12-11T18:38:26.294Z,97913.22
2022-12-11T18:40:53.256Z,97915.06
2022-12-11T18:43:20.222Z,97912.41
2022-12-11T18:45:47.244Z,97883.03
2022-12-11T18:48:14.416Z,97889.72
2022-12-11T18:50:45.812Z,97891.06
2022-12-11T18:53:12.977Z,97882.75
2022-12-11T18:55:43.955Z,97915.34
2022-12-11T18:58:13.579Z,97916.97
2022-12-11T19:00:41.281Z,97921.19
2022-12-11T19:03:08.413Z,97927.34
2022-12-11T19:05:36.041Z,97890.75
2022-12-11T19:08:03.208Z,97923.63
2022-12-11T19:10:30.192Z,97917.75
2022-12-11T19:12:57.142Z,97927.63
2022-12-11T19:15:24.585Z,97927.06
2022-12-11T19:17:51.669Z,97936.44
2022-12-11T19:20:47.609Z,97936.69
2022-12-11T19:23:06.244Z,97923.59
2022-12-11T19:25:33.285Z,97932.16
2022-12-11T19:28:00.337Z,97934.81
2022-12-11T19:30:27.384Z,97931.34
2022-12-11T19:32:54.304Z,97930.81
2022-12-11T19:35:21.353Z,97932.44
2022-12-11T19:37:48.289Z,97931.63
2022-12-11T19:40:15.422Z,97904.38
2022-12-11T19:42:42.473Z,97936.41
2022-12-11T19:45:10.843Z,97899.56
2022-12-11T19:47:37.894Z,97938.53
2022-12-11T19:50:05.099Z,97938.81
2022-12-11T19:52:32.012Z,97942.00
2022-12-11T19:55:03.195Z,97946.56
2022-12-11T19:57:32.441Z,97945.22
2022-12-11T20:00:00.580Z,97952.16
2022-12-11T20:02:27.752Z,97946.28
2022-12-11T20:04:54.782Z,97951.59
2022-12-11T20:07:26.123Z,97946.28
2022-12-11T20:09:57.247Z,97945.19
2022-12-11T20:12:24.515Z,97952.16
2022-12-11T20:14:51.351Z,97938.81
2022-12-11T20:17:18.284Z,97944.94
2022-12-11T20:19:45.341Z,97905.69
2022-12-11T20:22:12.265Z,97932.13
2022-12-11T20:24:39.247Z,97927.06
2022-12-11T20:27:06.269Z,97923.81
2022-12-11T20:29:33.173Z,97929.72
2022-12-11T20:32:00.597Z,97927.59
2022-12-11T20:34:27.720Z,97903.31
2022-12-11T20:36:55.638Z,97928.13
2022-12-11T20:39:22.586Z,97926.00
2022-12-11T20:41:49.459Z,97933.19
2022-12-11T20:44:16.409Z,97935.59
2022-12-11T20:46:43.336Z,97930.28
2022-12-11T20:49:12.940Z,97935.88
2022-12-11T20:51:40.403Z,97874.72
2022-12-11T20:54:07.406Z,97898.72
2022-12-11T20:56:34.254Z,97931.59
2022-12-11T20:59:01.112Z,97932.66
2022-12-11T21:01:30.358Z,97930.00
2022-12-11T21:03:57.726Z,97856.81
2022-12-11T21:06:32.313Z,97930.78
2022-12-11T21:09:00.399Z,97925.44
2022-12-11T21:11:27.421Z,97935.03
2022-12-11T21:13:54.543Z,97928.66
2022-12-11T21:16:21.603Z,97933.97
2022-12-11T21:18:48.855Z,97925.19
2022-12-11T21:21:16.028Z,97928.13
2022-12-11T21:23:43.027Z,97903.00
2022-12-11T21:26:09.907Z,97934.00
2022-12-11T21:28:36.869Z,97940.41
2022-12-11T21:31:06.178Z,97940.13
2022-12-11T21:33:33.037Z,97937.22
2022-12-11T21:36:00.075Z,97942.00
2022-12-11T21:38:27.200Z,97944.94
2022-12-11T21:40:54.106Z,97949.47
2022-12-11T21:43:21.286Z,97941.47
2022-12-11T21:46:04.039Z,97940.69
2022-12-11T21:48:31.407Z,97945.47
2022-12-11T21:51:15.530Z,97919.53
2022-12-11T21:53:42.693Z,97941.75
2022-12-11T21:56:11.306Z,97947.09
2022-12-11T21:58:38.832Z,97939.34
2022-12-11T22:01:06.212Z,97945.22
2022-12-11T22:03:33.201Z,97935.88
2022-12-11T22:06:00.075Z,97936.41
2022-12-11T22:08:27.036Z,97929.22
2022-12-11T22:10:53.980Z,97928.66
2022-12-11T22:13:20.834Z,97920.91
2022-12-11T22:15:47.788Z,97937.75
2022-12-11T22:18:15.612Z,97932.94
2022-12-11T22:20:42.463Z,97930.81
2022-12-11T22:23:09.335Z,97929.19
2022-12-11T22:25:36.489Z,97927.59
2022-12-11T22:28:03.441Z,97921.72
2022-12-11T22:30:30.373Z,97900.34
2022-12-11T22:32:57.427Z,97930.03
2022-12-11T22:35:27.275Z,97934.81
2022-12-11T22:37:54.554Z,97931.88
2022-12-11T22:40:21.563Z,97934.25
2022-12-11T22:42:48.401Z,97926.50
2022-12-11T22:45:15.409Z,97901.66
2022-12-11T22:47:42.289Z,97932.41
2022-12-11T22:50:10.183Z,97917.47
2022-12-11T22:52:37.346Z,97916.94
2022-12-11T22:55:04.763Z,97891.25
2022-12-11T22:57:31.812Z,97926.53
2022-12-11T22:59:58.711Z,97916.91
2022-12-11T23:02:25.675Z,97919.84
2022-12-11T23:04:52.793Z,97918.53
2022-12-11T23:07:19.695Z,97926.00
2022-12-11T23:09:46.569Z,97920.13
2022-12-11T23:12:13.419Z,97926.53
2022-12-11T23:14:40.312Z,97923.59
2022-12-11T23:17:07.149Z,97924.66
2022-12-11T23:19:34.685Z,97922.25
2022-12-11T23:22:01.554Z,97921.44
2022-12-11T23:24:28.510Z,97924.59
2022-12-11T23:26:55.358Z,97917.41
2022-12-11T23:29:22.250Z,97913.41
2022-12-11T23:31:49.100Z,97913.13
2022-12-11T23:34:15.940Z,97910.50
2022-12-11T23:36:42.813Z,97905.69
2022-12-11T23:39:09.657Z,97915.25
2022-12-11T23:41:36.505Z,97911.00
2022-12-11T23:44:03.494Z,97910.47
2022-12-11T23:46:30.420Z,97902.22
2022-12-11T23:48:57.327Z,97911.59
2022-12-11T23:51:24.860Z,97916.09
2022-12-11T23:53:52.058Z,97914.78
2022-12-11T23:56:23.711Z,97917.44
2022-12-11T23:58:50.913Z,97913.19
